Time;durP1;ratioP1;P1;durP2;ratioP2;P2;SDS_P1;SDS_P2;PMS_P1;PMS_P2;Temp;Humidity;BMP_temperature;BMP_pressure;BME280_temperature;BME280_humidity;BME280_pressure;Samples;Min_cycle;Max_cycle;Signal;HPM_P1;HPM_P2
2023/10/03 00:02:27;;;;;;;11.63;5.32;;;19.40;53.40;;;;;;2366261;53;21030;-68
2023/10/03 00:04:54;;;;;;;9.65;4.72;;;19.40;53.60;;;;;;2602009;52;20903;-66
2023/10/03 00:07:20;;;;;;;10.90;4.97;;;19.30;53.50;;;;;;2369856;53;20918;-66
2023/10/03 00:09:49;;;;;;;9.57;5.30;;;19.30;53.60;;;;;;2369140;53;21357;-67
2023/10/03 00:12:16;;;;;;;11.52;4.65;;;19.20;53.60;;;;;;2587584;52;20962;-71
2023/10/03 00:14:42;;;;;;;11.75;4.82;;;19.20;53.60;;;;;;2341035;53;20937;-67
2023/10/03 00:17:09;;;;;;;11.07;4.87;;;19.20;53.60;;;;;;2587840;52;20989;-67
2023/10/03 00:19:36;;;;;;;12.45;5.60;;;19.20;53.60;;;;;;2354088;53;20957;-67
2023/10/03 00:22:03;;;;;;;12.35;5.68;;;19.10;53.60;;;;;;2593654;52;20921;-70
2023/10/03 00:24:29;;;;;;;11.90;5.20;;;19.10;53.80;;;;;;2341273;53;20956;-66
2023/10/03 00:26:55;;;;;;;10.93;4.95;;;19.00;53.90;;;;;;2341254;53;20972;-71
2023/10/03 00:29:26;;;;;;;13.25;6.18;;;19.00;53.90;;;;;;2341146;53;21530;-69
2023/10/03 00:31:53;;;;;;;11.25;5.03;;;19.00;53.90;;;;;;2337998;53;21067;-68
2023/10/03 00:34:22;;;;;;;10.20;4.57;;;19.00;53.90;;;;;;2340017;53;20936;-67
2023/10/03 00:36:50;;;;;;;12.25;4.90;;;18.90;53.80;;;;;;2586814;52;20946;-67
2023/10/03 00:39:16;;;;;;;11.88;5.50;;;18.90;53.90;;;;;;2341064;53;20957;-66
2023/10/03 00:41:44;;;;;;;14.02;6.55;;;18.90;54.00;;;;;;2340478;53;20915;-70
2023/10/03 00:44:10;;;;;;;12.23;5.65;;;18.90;54.20;;;;;;2340597;53;21017;-66
2023/10/03 00:46:37;;;;;;;14.55;5.35;;;18.80;54.10;;;;;;2586197;52;20926;-66
2023/10/03 00:49:14;;;;;;;11.77;5.03;;;18.80;54.10;;;;;;2585839;52;20998;-67
2023/10/03 00:51:41;;;;;;;9.85;4.80;;;18.80;54.10;;;;;;2341269;53;21896;-66
2023/10/03 00:54:07;;;;;;;10.75;5.50;;;18.80;54.10;;;;;;2340260;53;20926;-66
2023/10/03 00:56:35;;;;;;;11.77;5.45;;;18.80;54.20;;;;;;2340550;53;21475;-66
2023/10/03 00:59:02;;;;;;;13.60;5.25;;;18.70;54.20;;;;;;2331813;53;21047;-65
2023/10/03 01:01:28;;;;;;;11.30;4.80;;;18.70;54.20;;;;;;2598643;52;21165;-67
2023/10/03 01:03:58;;;;;;;10.73;4.95;;;18.70;54.20;;;;;;2608109;52;20925;-66
2023/10/03 01:06:25;;;;;;;11.70;5.10;;;18.70;54.20;;;;;;2557344;53;21374;-66
2023/10/03 01:08:51;;;;;;;13.68;5.45;;;18.60;54.30;;;;;;2593903;52;20928;-67
2023/10/03 01:11:18;;;;;;;12.95;5.35;;;18.60;54.40;;;;;;2339312;53;20917;-66
2023/10/03 01:13:49;;;;;;;10.85;5.20;;;18.60;54.40;;;;;;2340311;53;20972;-69
2023/10/03 01:16:37;;;;;;;10.20;4.43;;;18.60;54.50;;;;;;2585823;52;21000;-67
2023/10/03 01:19:14;;;;;;;9.63;4.60;;;18.50;54.40;;;;;;2341445;53;20941;-70
2023/10/03 01:21:41;;;;;;;9.32;4.18;;;18.50;54.50;;;;;;2340429;53;21011;-67
2023/10/03 01:24:11;;;;;;;9.18;4.20;;;18.50;54.40;;;;;;2340900;53;20937;-67
2023/10/03 01:26:38;;;;;;;10.02;4.47;;;18.40;54.50;;;;;;2340470;53;20996;-66
2023/10/03 01:29:06;;;;;;;9.50;4.62;;;18.40;54.60;;;;;;2601478;52;20953;-68
2023/10/03 01:31:36;;;;;;;11.00;4.00;;;18.40;54.70;;;;;;2589547;52;21379;-68
2023/10/03 01:34:05;;;;;;;10.70;4.70;;;18.40;54.90;;;;;;2347721;53;20974;-66
2023/10/03 01:36:32;;;;;;;11.80;4.70;;;18.40;55.10;;;;;;2368335;53;21889;-67
2023/10/03 01:38:58;;;;;;;9.25;4.22;;;18.40;55.20;;;;;;2368695;53;20911;-66
2023/10/03 01:41:25;;;;;;;8.90;3.42;;;18.40;55.30;;;;;;2368554;53;21045;-67
2023/10/03 01:43:51;;;;;;;9.70;4.40;;;18.40;55.50;;;;;;2369067;53;21017;-67
2023/10/03 01:46:18;;;;;;;8.43;3.65;;;18.50;55.70;;;;;;2368120;53;20903;-72
2023/10/03 01:48:44;;;;;;;8.52;3.42;;;18.60;55.90;;;;;;2369348;53;20934;-67
2023/10/03 01:51:10;;;;;;;6.70;3.45;;;18.60;56.00;;;;;;2367812;53;20985;-68
2023/10/03 01:53:39;;;;;;;6.37;3.03;;;18.60;56.00;;;;;;2585716;52;21009;-67
2023/10/03 01:56:06;;;;;;;7.18;3.35;;;18.70;56.20;;;;;;2366283;53;20915;-68
2023/10/03 01:58:34;;;;;;;6.87;3.40;;;18.80;56.30;;;;;;2620966;52;20958;-69
2023/10/03 02:01:00;;;;;;;7.12;3.60;;;18.90;56.60;;;;;;2368541;53;21002;-67
2023/10/03 02:03:29;;;;;;;6.32;2.97;;;19.00;56.70;;;;;;2364575;53;21025;-71
2023/10/03 02:05:56;;;;;;;8.10;3.47;;;19.10;56.70;;;;;;2600274;52;20958;-67
2023/10/03 02:08:25;;;;;;;7.28;3.80;;;19.20;56.70;;;;;;2368750;53;20930;-69
2023/10/03 02:10:51;;;;;;;6.90;2.97;;;19.40;56.90;;;;;;2621573;52;21006;-67
2023/10/03 02:13:18;;;;;;;7.22;3.45;;;19.50;57.00;;;;;;2620883;52;20911;-67
2023/10/03 02:15:50;;;;;;;7.22;3.50;;;19.60;56.90;;;;;;2621298;52;20998;-68
2023/10/03 02:18:18;;;;;;;;;;;19.80;57.00;;;;;;2371916;53;21694;-68
2023/10/03 02:20:59;;;;;;;6.40;3.03;;;19.90;56.90;;;;;;2368227;53;20211;-67
2023/10/03 02:23:27;;;;;;;7.35;3.12;;;20.10;56.80;;;;;;2587085;52;21840;-67
2023/10/03 02:25:57;;;;;;;5.47;2.97;;;20.20;56.70;;;;;;2587403;52;20929;-68
2023/10/03 02:29:17;;;;;;;6.05;3.20;;;20.30;56.60;;;;;;2341299;53;20993;-68
2023/10/03 02:31:44;;;;;;;5.45;2.42;;;20.50;56.60;;;;;;2585946;52;21425;-69
2023/10/03 02:34:11;;;;;;;6.75;2.92;;;20.60;56.40;;;;;;2587348;52;20980;-67
2023/10/03 02:36:39;;;;;;;5.03;2.67;;;20.80;56.40;;;;;;2340871;53;20927;-66
2023/10/03 02:39:07;;;;;;;5.72;2.58;;;20.90;56.30;;;;;;2587703;52;20924;-67
2023/10/03 02:41:34;;;;;;;5.78;2.70;;;21.00;56.10;;;;;;2340950;53;21060;-67
2023/10/03 02:44:01;;;;;;;6.50;2.85;;;21.10;56.00;;;;;;2586864;52;21794;-67
2023/10/03 02:46:27;;;;;;;5.85;2.90;;;21.20;55.90;;;;;;2603900;53;20917;-71
2023/10/03 02:48:56;;;;;;;6.25;2.72;;;21.40;55.90;;;;;;2588318;52;21009;-67
2023/10/03 02:51:23;;;;;;;5.75;2.55;;;21.50;55.70;;;;;;2587012;52;20991;-69
2023/10/03 02:53:51;;;;;;;5.70;2.67;;;21.60;55.60;;;;;;2587223;52;21033;-67
2023/10/03 02:56:17;;;;;;;6.07;3.12;;;21.70;55.30;;;;;;2578193;52;21056;-67
2023/10/03 02:58:43;;;;;;;5.50;2.87;;;21.80;55.20;;;;;;2604138;52;20955;-70
2023/10/03 03:01:10;;;;;;;5.78;3.05;;;21.80;55.10;;;;;;2364837;53;20982;-69
2023/10/03 03:03:40;;;;;;;7.32;3.10;;;22.00;55.00;;;;;;2353844;53;20967;-68
2023/10/03 03:06:14;;;;;;;5.47;2.90;;;22.10;54.80;;;;;;2366210;53;21113;-67
2023/10/03 03:08:41;;;;;;;6.18;3.17;;;22.20;54.60;;;;;;2353115;53;21835;-69
2023/10/03 03:11:08;;;;;;;5.85;2.50;;;22.30;54.70;;;;;;2622286;52;20947;-69
2023/10/03 03:13:36;;;;;;;7.50;3.10;;;22.30;54.60;;;;;;2368696;53;20954;-67
2023/10/03 03:16:04;;;;;;;5.57;3.10;;;22.40;54.50;;;;;;2368558;53;20938;-67
2023/10/03 03:18:40;;;;;;;6.25;2.72;;;22.50;54.40;;;;;;2621254;52;20930;-67
2023/10/03 03:21:09;;;;;;;5.20;2.83;;;22.50;54.20;;;;;;2369600;53;21066;-69
2023/10/03 03:23:42;;;;;;;5.12;2.58;;;22.60;54.10;;;;;;2369243;53;21142;-67
2023/10/03 03:26:36;;;;;;;6.20;2.95;;;22.70;53.80;;;;;;2369047;53;20939;-67
2023/10/03 03:29:06;;;;;;;5.78;2.60;;;22.80;53.80;;;;;;2621184;52;21002;-67
2023/10/03 03:31:33;;;;;;;7.47;3.05;;;22.80;53.70;;;;;;2368324;53;20942;-67
2023/10/03 03:34:02;;;;;;;5.35;2.87;;;22.90;53.70;;;;;;2369122;53;20989;-67
2023/10/03 03:36:30;;;;;;;6.10;2.70;;;22.90;53.40;;;;;;2369588;53;20954;-69
2023/10/03 03:38:58;;;;;;;4.32;2.25;;;23.00;53.30;;;;;;2621622;52;20986;-69
2023/10/03 03:41:24;;;;;;;5.43;2.58;;;23.10;53.30;;;;;;2621193;52;20958;-71
2023/10/03 03:43:52;;;;;;;6.35;3.03;;;23.10;53.10;;;;;;2610164;52;21551;-70
2023/10/03 03:46:30;;;;;;;5.45;2.92;;;23.10;53.10;;;;;;2603908;52;20915;-68
2023/10/03 03:48:58;;;;;;;5.57;2.67;;;23.20;52.70;;;;;;2369102;53;21022;-70
2023/10/03 03:51:24;;;;;;;5.32;2.95;;;23.20;52.80;;;;;;2621251;52;21771;-69
2023/10/03 03:53:53;;;;;;;5.15;2.78;;;23.20;52.80;;;;;;2369066;53;20906;-67
2023/10/03 03:56:19;;;;;;;4.82;2.58;;;23.30;52.90;;;;;;2369121;53;20950;-67
2023/10/03 03:58:48;;;;;;;4.95;2.35;;;23.30;52.80;;;;;;2369247;53;21478;-70
2023/10/03 04:01:16;;;;;;;4.78;2.47;;;23.30;52.70;;;;;;2596903;52;20951;-67
2023/10/03 04:03:42;;;;;;;6.12;2.58;;;23.30;52.60;;;;;;2365544;53;20942;-67
2023/10/03 04:06:09;;;;;;;6.00;2.83;;;23.30;52.50;;;;;;2597380;52;21002;-69
2023/10/03 04:08:40;;;;;;;5.05;2.53;;;23.40;52.40;;;;;;2600921;52;21847;-68
2023/10/03 04:11:12;;;;;;;5.72;2.80;;;23.40;52.30;;;;;;2620390;52;20994;-67
2023/10/03 04:13:39;;;;;;;6.25;3.12;;;23.40;52.30;;;;;;2620583;52;20958;-67
2023/10/03 04:16:06;;;;;;;5.25;2.58;;;23.40;52.30;;;;;;2621347;52;21479;-69
2023/10/03 04:18:33;;;;;;;6.78;3.20;;;23.40;52.20;;;;;;2369515;53;21779;-71
2023/10/03 04:21:00;;;;;;;6.07;2.95;;;23.40;52.10;;;;;;2369143;53;20962;-67
2023/10/03 04:23:27;;;;;;;5.53;2.70;;;23.40;52.00;;;;;;2368807;53;20912;-68
2023/10/03 04:25:54;;;;;;;5.50;2.90;;;23.40;51.90;;;;;;2621430;52;21034;-67
2023/10/03 04:28:21;;;;;;;6.68;2.95;;;23.50;51.90;;;;;;2368986;53;20935;-67
2023/10/03 04:30:49;;;;;;;6.78;2.70;;;23.40;51.80;;;;;;2368938;53;20976;-66
2023/10/03 04:33:21;;;;;;;6.20;2.90;;;23.40;51.70;;;;;;2368820;53;21368;-67
2023/10/03 04:35:49;;;;;;;5.70;2.85;;;23.40;51.70;;;;;;2369019;53;21928;-67
2023/10/03 04:38:16;;;;;;;5.35;2.70;;;23.50;51.70;;;;;;2620194;52;20943;-70
2023/10/03 04:40:43;;;;;;;6.90;2.92;;;23.50;51.60;;;;;;2612879;52;20963;-70
2023/10/03 04:43:15;;;;;;;4.82;2.62;;;23.50;51.50;;;;;;2601982;52;21045;-68
2023/10/03 04:45:42;;;;;;;5.40;2.90;;;23.50;51.50;;;;;;2620475;52;20966;-71
2023/10/03 04:48:10;;;;;;;7.65;3.15;;;23.50;51.50;;;;;;2369644;53;20946;-67
2023/10/03 04:50:37;;;;;;;6.15;3.03;;;23.50;51.40;;;;;;2368429;53;20981;-67
2023/10/03 04:53:05;;;;;;;4.68;2.50;;;23.50;51.40;;;;;;2370021;53;21454;-68
2023/10/03 04:55:32;;;;;;;7.15;3.17;;;23.50;51.40;;;;;;2369257;53;21356;-68
2023/10/03 04:57:58;;;;;;;5.90;2.87;;;23.50;51.30;;;;;;2369148;53;20931;-67
2023/10/03 05:00:24;;;;;;;5.18;2.47;;;23.50;51.30;;;;;;2368713;53;20943;-67
2023/10/03 05:02:53;;;;;;;6.22;2.55;;;23.50;51.30;;;;;;2369010;53;21796;-68
2023/10/03 05:05:21;;;;;;;5.45;2.62;;;23.50;51.20;;;;;;2351023;53;20977;-67
2023/10/03 05:07:48;;;;;;;5.60;2.83;;;23.60;51.20;;;;;;2348209;53;20927;-68
2023/10/03 05:10:17;;;;;;;5.62;2.53;;;23.60;51.20;;;;;;2620913;52;20943;-68
2023/10/03 05:12:47;;;;;;;5.47;2.67;;;23.60;51.10;;;;;;2621978;52;20909;-70
2023/10/03 05:15:16;;;;;;;5.30;2.80;;;23.60;51.10;;;;;;2368892;53;20930;-68
2023/10/03 05:17:47;;;;;;;6.72;2.50;;;23.60;51.00;;;;;;2621461;52;21066;-71
2023/10/03 05:20:42;;;;;;;5.00;2.58;;;23.60;50.90;;;;;;2369298;53;21001;-70
2023/10/03 05:23:08;;;;;;;4.72;2.45;;;23.60;50.70;;;;;;2622625;52;20997;-67
2023/10/03 05:25:42;;;;;;;7.68;2.58;;;23.60;50.90;;;;;;2368105;53;21504;-68
2023/10/03 05:28:11;;;;;;;5.97;2.83;;;23.60;50.80;;;;;;2369199;53;21084;-67
2023/10/03 05:30:38;;;;;;;5.35;2.50;;;23.70;50.90;;;;;;2368413;53;20914;-68
2023/10/03 05:33:07;;;;;;;6.97;2.90;;;23.60;50.70;;;;;;2576108;53;20969;-68
2023/10/03 05:35:34;;;;;;;5.43;2.90;;;23.60;50.70;;;;;;2340371;53;20941;-67
2023/10/03 05:38:08;;;;;;;6.82;2.87;;;23.60;50.70;;;;;;2587374;52;21514;-67
2023/10/03 05:40:34;;;;;;;4.72;2.33;;;23.60;50.80;;;;;;2603605;52;20938;-67
2023/10/03 05:43:03;;;;;;;6.10;2.33;;;23.70;50.80;;;;;;2339725;53;20949;-67
2023/10/03 05:45:31;;;;;;;4.87;2.83;;;23.60;50.70;;;;;;2339259;53;20937;-68
2023/10/03 05:47:59;;;;;;;5.22;2.47;;;23.60;50.60;;;;;;2339848;53;20941;-67
2023/10/03 05:50:25;;;;;;;5.12;2.62;;;23.70;50.70;;;;;;2340479;53;21501;-67
2023/10/03 05:52:52;;;;;;;5.00;2.30;;;23.70;50.70;;;;;;2340667;53;21406;-67
2023/10/03 05:55:18;;;;;;;4.95;2.60;;;23.70;50.60;;;;;;2588011;52;21479;-69
2023/10/03 05:57:46;;;;;;;4.90;3.10;;;23.70;50.60;;;;;;2354371;53;21021;-68
2023/10/03 06:00:16;;;;;;;6.03;2.80;;;23.60;50.50;;;;;;2583455;52;20989;-67
2023/10/03 06:02:47;;;;;;;4.97;2.62;;;23.60;50.40;;;;;;2603127;52;21081;-67
2023/10/03 06:05:16;;;;;;;4.62;2.42;;;23.70;50.50;;;;;;2364266;54;20958;-68
2023/10/03 06:07:43;;;;;;;6.18;2.80;;;23.70;50.50;;;;;;2346237;53;20953;-68
2023/10/03 06:10:10;;;;;;;5.28;2.85;;;23.70;50.50;;;;;;2587351;52;20909;-69
2023/10/03 06:12:37;;;;;;;5.22;2.60;;;23.70;50.50;;;;;;2361947;53;20953;-67
2023/10/03 06:15:04;;;;;;;4.30;2.30;;;23.70;50.50;;;;;;2334331;53;20981;-67
2023/10/03 06:17:33;;;;;;;5.15;2.53;;;23.70;50.50;;;;;;2340630;53;21548;-69
2023/10/03 06:20:05;;;;;;;4.62;2.30;;;23.70;50.40;;;;;;2587104;52;20957;-67
2023/10/03 06:22:33;;;;;;;7.33;2.70;;;23.70;50.40;;;;;;2340506;53;20932;-68
2023/10/03 06:24:59;;;;;;;5.12;2.30;;;23.70;50.40;;;;;;2341667;53;20988;-68
2023/10/03 06:27:26;;;;;;;5.60;2.50;;;23.70;50.40;;;;;;2341243;53;21001;-71
2023/10/03 06:29:53;;;;;;;5.90;2.60;;;23.70;50.40;;;;;;2587406;52;21067;-67
2023/10/03 06:32:20;;;;;;;4.00;2.10;;;23.80;50.40;;;;;;2340747;53;20988;-69
2023/10/03 06:34:47;;;;;;;5.30;2.45;;;23.80;50.40;;;;;;2340874;53;21155;-68
2023/10/03 06:37:14;;;;;;;4.80;2.40;;;23.80;50.40;;;;;;2341661;53;21407;-70
2023/10/03 06:39:42;;;;;;;4.57;2.40;;;23.80;50.40;;;;;;2597439;52;21053;-67
2023/10/03 06:42:11;;;;;;;4.60;2.12;;;23.80;50.40;;;;;;2345225;53;21003;-67
2023/10/03 06:44:40;;;;;;;4.43;2.20;;;23.80;50.40;;;;;;2340496;53;20952;-67
2023/10/03 06:47:07;;;;;;;5.47;2.50;;;23.80;50.40;;;;;;2591952;52;21300;-71
2023/10/03 06:49:34;;;;;;;5.10;2.65;;;23.90;50.50;;;;;;2344508;53;21216;-68
2023/10/03 06:52:01;;;;;;;4.65;2.22;;;23.90;50.40;;;;;;2341727;53;20925;-67
2023/10/03 06:54:29;;;;;;;5.15;2.37;;;23.90;50.40;;;;;;2340938;53;21017;-69
2023/10/03 06:57:05;;;;;;;5.60;2.20;;;23.90;50.40;;;;;;2341506;53;21004;-68
2023/10/03 06:59:33;;;;;;;4.62;2.20;;;24.00;50.40;;;;;;2586304;52;21532;-68
2023/10/03 07:01:59;;;;;;;4.95;2.30;;;24.00;50.50;;;;;;2340556;53;22021;-68
2023/10/03 07:04:26;;;;;;;4.72;2.75;;;24.00;50.50;;;;;;2341011;53;20917;-69
2023/10/03 07:06:52;;;;;;;4.20;2.42;;;24.00;50.50;;;;;;2340407;53;20928;-67
2023/10/03 07:09:19;;;;;;;5.32;2.60;;;24.10;50.50;;;;;;2587418;52;21009;-67
2023/10/03 07:11:49;;;;;;;5.12;2.58;;;24.10;50.40;;;;;;2340761;53;20909;-67
2023/10/03 07:14:20;;;;;;;3.75;2.10;;;24.10;50.30;;;;;;2341395;53;21248;-71
2023/10/03 07:16:48;;;;;;;4.37;2.30;;;24.20;50.40;;;;;;2586468;52;20968;-68
2023/10/03 07:19:16;;;;;;;6.22;2.70;;;24.20;50.30;;;;;;2587678;52;21424;-68
2023/10/03 07:21:45;;;;;;;4.78;2.40;;;24.20;50.30;;;;;;2341729;53;20929;-69
2023/10/03 07:24:13;;;;;;;5.12;2.40;;;24.30;50.20;;;;;;2341037;53;20968;-68
2023/10/03 07:26:39;;;;;;;4.53;2.42;;;24.30;50.20;;;;;;2587151;52;20958;-68
2023/10/03 07:29:06;;;;;;;4.70;2.30;;;24.40;50.20;;;;;;2341104;53;21037;-71
2023/10/03 07:31:33;;;;;;;4.05;2.40;;;24.40;50.90;;;;;;2340884;53;21032;-69
2023/10/03 07:34:03;;;;;;;4.43;2.05;;;24.50;50.20;;;;;;2341335;53;20989;-69
2023/10/03 07:36:29;;;;;;;4.45;2.33;;;24.50;50.20;;;;;;2341226;53;20981;-69
2023/10/03 07:38:55;;;;;;;4.68;2.47;;;24.60;50.30;;;;;;2342051;53;20917;-69
2023/10/03 07:41:24;;;;;;;6.37;2.72;;;24.70;50.20;;;;;;2341297;53;21012;-68
2023/10/03 07:43:52;;;;;;;4.55;2.58;;;24.70;50.10;;;;;;2340925;53;21769;-68
2023/10/03 07:46:23;;;;;;;4.37;2.22;;;24.80;50.10;;;;;;2341718;53;20905;-69
2023/10/03 07:48:52;;;;;;;6.13;2.40;;;24.80;50.00;;;;;;2588097;52;20969;-68
2023/10/03 07:51:19;;;;;;;5.03;2.20;;;24.90;50.00;;;;;;2352275;53;21442;-69
2023/10/03 07:53:47;;;;;;;5.47;2.53;;;25.00;50.10;;;;;;2596109;52;20933;-67
2023/10/03 07:56:25;;;;;;;7.43;2.35;;;25.00;49.90;;;;;;2342472;54;21004;-67
2023/10/03 07:58:54;;;;;;;6.62;2.55;;;25.10;49.90;;;;;;2344390;54;20953;-67
2023/10/03 08:01:24;;;;;;;5.28;2.45;;;25.10;49.80;;;;;;2609976;52;20939;-67
2023/10/03 08:03:53;;;;;;;5.25;2.40;;;25.20;49.80;;;;;;2368761;53;20985;-67
2023/10/03 08:06:33;;;;;;;6.62;2.30;;;25.30;49.70;;;;;;2370165;53;20926;-68
2023/10/03 08:09:03;;;;;;;4.93;2.42;;;25.30;49.50;;;;;;2369672;53;21537;-68
2023/10/03 08:11:30;;;;;;;4.95;2.75;;;25.40;49.50;;;;;;2365368;53;21286;-67
2023/10/03 08:14:11;;;;;;;4.45;2.30;;;25.50;49.50;;;;;;2353724;53;21009;-70
2023/10/03 08:16:40;;;;;;;4.72;2.40;;;25.50;49.30;;;;;;2620972;52;21054;-69
2023/10/03 08:19:08;;;;;;;4.55;2.28;;;25.60;49.30;;;;;;2370319;53;21856;-67
2023/10/03 08:21:35;;;;;;;4.30;2.20;;;25.70;49.40;;;;;;2369470;53;22224;-67
2023/10/03 08:24:09;;;;;;;4.18;2.05;;;25.70;49.30;;;;;;2621631;52;21181;-69
2023/10/03 08:26:37;;;;;;;4.25;2.53;;;25.80;49.20;;;;;;2621310;52;21760;-70
2023/10/03 08:29:06;;;;;;;4.32;2.30;;;25.70;49.10;;;;;;2369200;53;20939;-67
2023/10/03 08:31:32;;;;;;;4.22;2.20;;;25.90;49.20;;;;;;2621279;52;21590;-68
2023/10/03 08:33:59;;;;;;;4.68;2.53;;;26.00;49.10;;;;;;2611315;52;21014;-68
2023/10/03 08:36:28;;;;;;;4.70;2.30;;;26.10;49.00;;;;;;2602925;52;20926;-67
2023/10/03 08:39:12;;;;;;;4.62;2.50;;;26.20;48.90;;;;;;2348929;53;21094;-67
2023/10/03 08:41:48;;;;;;;4.32;2.50;;;26.20;48.80;;;;;;2368621;53;21124;-68
2023/10/03 08:44:14;;;;;;;5.68;2.62;;;26.30;48.50;;;;;;2370025;53;20989;-68
2023/10/03 08:46:55;;;;;;;3.85;2.30;;;26.40;48.80;;;;;;2368235;53;21288;-66
2023/10/03 08:49:59;;;;;;;5.85;2.60;;;26.50;48.60;;;;;;2352591;53;20926;-69
2023/10/03 08:52:39;;;;;;;5.18;2.75;;;26.60;48.60;;;;;;2370453;53;21775;-69
2023/10/03 08:55:07;;;;;;;5.12;2.40;;;26.70;48.80;;;;;;2621725;52;21002;-67
2023/10/03 08:57:35;;;;;;;5.93;2.42;;;26.80;48.70;;;;;;2369281;53;20993;-70
2023/10/03 09:00:06;;;;;;;3.97;2.00;;;26.80;48.70;;;;;;2622036;52;20894;-68
2023/10/03 09:02:40;;;;;;;5.57;2.47;;;26.90;48.60;;;;;;2368909;53;21069;-67
2023/10/03 09:05:15;;;;;;;4.60;2.58;;;27.00;48.50;;;;;;2369298;53;20934;-67
2023/10/03 09:07:44;;;;;;;6.12;2.60;;;27.10;48.30;;;;;;2369113;53;20978;-68
2023/10/03 09:10:22;;;;;;;4.37;2.53;;;27.20;47.90;;;;;;2369482;53;20942;-67
2023/10/03 09:12:50;;;;;;;5.35;3.20;;;27.30;48.00;;;;;;2337918;53;20953;-67
2023/10/03 09:15:19;;;;;;;4.53;2.33;;;27.30;47.70;;;;;;2370929;53;20949;-67
2023/10/03 09:17:49;;;;;;;4.55;2.33;;;27.40;47.50;;;;;;2362593;53;20927;-66
2023/10/03 09:20:21;;;;;;;5.55;2.78;;;27.40;47.40;;;;;;2365481;54;21383;-67
2023/10/03 09:22:47;;;;;;;4.05;2.15;;;27.50;47.10;;;;;;2368582;53;20958;-69
2023/10/03 09:25:16;;;;;;;5.85;2.30;;;27.50;47.20;;;;;;2369052;53;20973;-67
2023/10/03 09:27:44;;;;;;;3.83;1.90;;;27.60;47.10;;;;;;2368326;53;21482;-68
2023/10/03 09:30:22;;;;;;;6.50;2.40;;;27.60;47.10;;;;;;2369731;53;21636;-66
2023/10/03 09:32:53;;;;;;;6.68;2.60;;;27.70;47.10;;;;;;2369524;53;20934;-67
2023/10/03 09:35:21;;;;;;;5.97;2.60;;;27.80;46.80;;;;;;2364507;53;21533;-67
2023/10/03 09:37:48;;;;;;;4.53;2.33;;;27.90;46.90;;;;;;2367417;53;21406;-70
2023/10/03 09:40:18;;;;;;;4.70;2.33;;;27.90;46.80;;;;;;2368276;53;20902;-67
2023/10/03 09:42:49;;;;;;;5.25;2.70;;;27.90;46.80;;;;;;2368952;53;20907;-66
2023/10/03 09:45:17;;;;;;;;;;;28.00;46.80;;;;;;2372560;53;20938;-69
2023/10/03 09:47:45;;;;;;;5.15;2.65;;;28.00;46.80;;;;;;2367733;53;20125;-67
2023/10/03 09:50:12;;;;;;;5.07;2.80;;;28.10;46.80;;;;;;2368816;53;20938;-68
2023/10/03 09:52:39;;;;;;;5.57;2.90;;;28.10;46.60;;;;;;2368987;53;20934;-67
2023/10/03 09:55:20;;;;;;;8.15;2.75;;;28.10;46.50;;;;;;2368948;53;20945;-66
2023/10/03 09:57:51;;;;;;;5.43;2.47;;;28.20;46.50;;;;;;2620256;52;20929;-66
2023/10/03 10:00:38;;;;;;;5.47;2.83;;;28.20;46.50;;;;;;2369411;53;20910;-67
2023/10/03 10:03:19;;;;;;;5.30;2.58;;;28.20;46.30;;;;;;2369255;53;20930;-67
2023/10/03 10:07:49;;;;;;;4.85;2.80;;;28.30;46.30;;;;;;2368717;53;20970;-67
2023/10/03 10:10:19;;;;;;;4.93;2.53;;;28.30;46.20;;;;;;2620986;52;20938;-67
2023/10/03 10:13:34;;;;;;;5.25;2.40;;;28.40;46.40;;;;;;2619402;52;21798;-67
2023/10/03 10:16:13;;;;;;;4.78;2.53;;;28.40;46.20;;;;;;2367921;53;20898;-67
2023/10/03 10:19:18;;;;;;;4.95;2.72;;;28.40;46.10;;;;;;2368071;53;20953;-68
2023/10/03 10:21:51;;;;;;;4.20;2.20;;;28.50;45.90;;;;;;2616998;52;21336;-67
2023/10/03 10:24:27;;;;;;;4.37;2.40;;;28.50;46.10;;;;;;2620587;52;21280;-68
2023/10/03 10:26:54;;;;;;;5.93;2.85;;;28.50;46.30;;;;;;2367957;53;21042;-69
2023/10/03 10:29:24;;;;;;;5.62;2.70;;;28.50;46.30;;;;;;2621157;52;20965;-67
2023/10/03 10:32:01;;;;;;;4.93;2.40;;;28.60;46.10;;;;;;2620019;52;20890;-67
2023/10/03 10:34:32;;;;;;;4.37;2.12;;;28.60;46.10;;;;;;2368573;53;21062;-68
2023/10/03 10:37:15;;;;;;;5.10;2.08;;;28.70;46.10;;;;;;2621178;52;20915;-68
2023/10/03 10:43:16;;;;;;;4.95;2.20;;;28.70;45.90;;;;;;2620995;52;21041;-67
2023/10/03 10:45:44;;;;;;;6.62;2.42;;;28.80;46.00;;;;;;2366015;53;20948;-68
2023/10/03 10:48:12;;;;;;;4.20;2.10;;;28.80;45.90;;;;;;2617505;52;21001;-67
2023/10/03 10:51:07;;;;;;;5.28;2.70;;;28.80;45.70;;;;;;2621273;52;20984;-66
2023/10/03 10:53:43;;;;;;;3.75;1.85;;;28.80;45.40;;;;;;2364625;53;20910;-67
2023/10/03 10:56:10;;;;;;;5.95;2.75;;;28.90;45.60;;;;;;2369146;53;20977;-69
2023/10/03 10:58:51;;;;;;;5.03;2.70;;;28.90;45.60;;;;;;2621309;52;20907;-67
2023/10/03 11:01:19;;;;;;;6.07;2.62;;;28.90;45.30;;;;;;2619722;52;20974;-67
2023/10/03 11:03:46;;;;;;;6.80;2.83;;;28.90;45.60;;;;;;2610065;52;20998;-68
2023/10/03 11:06:16;;;;;;;7.50;2.92;;;28.90;45.60;;;;;;2620655;52;20939;-67
2023/10/03 11:08:49;;;;;;;6.15;2.87;;;28.90;45.50;;;;;;2368997;53;20977;-67
2023/10/03 11:11:16;;;;;;;6.03;3.30;;;28.90;45.60;;;;;;2369273;53;21073;-68
2023/10/03 11:13:50;;;;;;;5.80;3.25;;;28.90;45.60;;;;;;2368913;53;20895;-69
2023/10/03 11:16:23;;;;;;;5.80;3.00;;;28.90;45.60;;;;;;2621351;52;20902;-67
2023/10/03 11:18:51;;;;;;;6.03;3.33;;;28.90;45.50;;;;;;2621297;52;20934;-67
2023/10/03 11:21:19;;;;;;;6.00;3.35;;;28.90;45.70;;;;;;2369387;53;20934;-69
2023/10/03 11:24:13;;;;;;;5.72;3.00;;;28.90;45.70;;;;;;2368444;53;20941;-68
2023/10/03 11:26:57;;;;;;;6.28;3.97;;;29.00;45.50;;;;;;2368889;53;20926;-69
2023/10/03 11:29:48;;;;;;;5.25;3.22;;;28.90;45.60;;;;;;2621936;52;21057;-74
2023/10/03 11:32:26;;;;;;;4.43;2.93;;;28.90;45.70;;;;;;2369668;53;21774;-71
2023/10/03 11:34:53;;;;;;;7.15;3.70;;;28.90;45.90;;;;;;2614197;52;21524;-73
2023/10/03 11:37:41;;;;;;;6.28;3.42;;;28.90;45.90;;;;;;2366245;53;20934;-70
2023/10/03 11:40:18;;;;;;;6.95;3.65;;;28.90;46.00;;;;;;2369095;53;21899;-73
2023/10/03 11:43:08;;;;;;;6.18;3.62;;;28.90;46.00;;;;;;2368849;53;20946;-73
2023/10/03 11:45:34;;;;;;;5.60;3.53;;;28.90;46.20;;;;;;2364120;54;21001;-70
2023/10/03 11:48:19;;;;;;;5.03;3.35;;;28.90;46.80;;;;;;2620867;52;20966;-71
2023/10/03 11:50:46;;;;;;;5.37;3.25;;;28.90;46.20;;;;;;2620456;52;20922;-72
2023/10/03 11:53:13;;;;;;;7.75;3.95;;;28.90;46.40;;;;;;2620913;52;20922;-73
2023/10/03 11:55:42;;;;;;;5.97;3.47;;;29.00;46.40;;;;;;2360791;53;21821;-72
2023/10/03 11:58:12;;;;;;;5.47;3.58;;;29.00;46.30;;;;;;2621543;52;21233;-72
2023/10/03 12:00:43;;;;;;;7.72;3.58;;;29.10;46.30;;;;;;2621005;52;21223;-71
2023/10/03 12:03:11;;;;;;;6.78;3.90;;;29.10;46.20;;;;;;2621253;52;21299;-70
2023/10/03 12:05:39;;;;;;;6.22;4.00;;;29.20;46.20;;;;;;2368039;53;22058;-72
2023/10/03 12:08:08;;;;;;;6.15;3.58;;;29.20;46.00;;;;;;2621541;52;22330;-71
2023/10/03 12:10:36;;;;;;;6.57;3.45;;;29.20;45.80;;;;;;2364766;53;20985;-73
2023/10/03 12:13:03;;;;;;;7.07;3.72;;;29.20;45.70;;;;;;2368765;53;20980;-71
2023/10/03 12:15:30;;;;;;;7.05;3.30;;;29.30;45.70;;;;;;2364423;53;20934;-71
2023/10/03 12:17:58;;;;;;;5.82;3.15;;;29.30;45.40;;;;;;2368826;53;21033;-72
2023/10/03 12:20:25;;;;;;;5.45;2.95;;;29.30;45.20;;;;;;2369256;53;20930;-73
2023/10/03 12:22:54;;;;;;;6.75;3.15;;;29.20;44.90;;;;;;2617635;52;21450;-71
2023/10/03 12:25:23;;;;;;;5.10;3.10;;;29.20;44.70;;;;;;2364296;53;20958;-72
2023/10/03 12:27:52;;;;;;;6.60;3.60;;;29.20;44.60;;;;;;2368838;53;21049;-70
2023/10/03 12:30:19;;;;;;;5.70;2.90;;;29.10;44.50;;;;;;2621049;52;20907;-71
2023/10/03 12:32:48;;;;;;;5.53;3.08;;;29.10;44.50;;;;;;2368866;53;20974;-71
2023/10/03 12:35:14;;;;;;;5.25;2.72;;;29.10;44.40;;;;;;2370825;53;21410;-70
2023/10/03 12:37:47;;;;;;;4.60;2.78;;;29.00;44.30;;;;;;2362335;53;21009;-71
2023/10/03 12:40:18;;;;;;;;;;;29.00;44.40;;;;;;2369438;53;20946;-72
2023/10/03 12:42:47;;;;;;;5.53;2.55;;;29.00;44.60;;;;;;2369025;53;20108;-72
2023/10/03 12:45:16;;;;;;;4.43;2.40;;;28.90;44.50;;;;;;2368178;53;20981;-72
2023/10/03 12:47:47;;;;;;;7.57;2.83;;;28.80;45.20;;;;;;2369036;53;20979;-72
2023/10/03 12:50:19;;;;;;;4.82;2.75;;;28.80;44.60;;;;;;2369512;53;21487;-71
2023/10/03 12:52:48;;;;;;;4.80;2.72;;;28.80;44.90;;;;;;2369123;53;20954;-73
2023/10/03 12:55:16;;;;;;;5.00;2.78;;;28.70;45.00;;;;;;2369097;53;21519;-73
2023/10/03 12:57:45;;;;;;;6.00;2.55;;;28.70;45.20;;;;;;2620994;52;20931;-70
2023/10/03 13:00:12;;;;;;;4.95;2.92;;;28.70;45.30;;;;;;2621994;52;20974;-73
2023/10/03 13:02:44;;;;;;;6.40;3.20;;;28.70;45.50;;;;;;2370814;53;20917;-71
2023/10/03 13:05:12;;;;;;;6.62;2.62;;;28.70;46.00;;;;;;2369358;53;20930;-70
2023/10/03 13:07:39;;;;;;;4.37;2.60;;;28.70;45.40;;;;;;2369190;53;21702;-72